sensor_id;sensor_type;location;lat;lon;timestamp;temperature;humidity
59007;DHT22;44792;52.760;6.726;2023-08-17T00:00:00;16.80;99.90
59007;DHT22;44792;52.760;6.726;2023-08-17T00:02:26;16.80;99.90
59007;DHT22;44792;52.760;6.726;2023-08-17T00:04:52;16.80;99.90
59007;DHT22;44792;52.760;6.726;2023-08-17T00:07:18;16.90;99.90
59007;DHT22;44792;52.760;6.726;2023-08-17T00:09:43;16.80;99.90
59007;DHT22;44792;52.760;6.726;2023-08-17T00:12:09;16.80;99.90
59007;DHT22;44792;52.760;6.726;2023-08-17T00:14:35;16.80;99.90
59007;DHT22;44792;52.760;6.726;2023-08-17T00:17:01;16.80;99.90
59007;DHT22;44792;52.760;6.726;2023-08-17T00:19:28;16.80;99.90
59007;DHT22;44792;52.760;6.726;2023-08-17T00:21:54;16.80;99.90
59007;DHT22;44792;52.760;6.726;2023-08-17T00:24:20;16.80;99.90
59007;DHT22;44792;52.760;6.726;2023-08-17T00:26:46;16.80;99.90
59007;DHT22;44792;52.760;6.726;2023-08-17T00:29:12;16.70;99.90
59007;DHT22;44792;52.760;6.726;2023-08-17T00:31:40;16.70;99.90
59007;DHT22;44792;52.760;6.726;2023-08-17T00:34:06;16.70;99.90
59007;DHT22;44792;52.760;6.726;2023-08-17T00:36:32;16.70;99.90
59007;DHT22;44792;52.760;6.726;2023-08-17T00:38:58;16.60;99.90
59007;DHT22;44792;52.760;6.726;2023-08-17T00:41:23;16.70;99.90
59007;DHT22;44792;52.760;6.726;2023-08-17T00:43:49;16.60;99.90
59007;DHT22;44792;52.760;6.726;2023-08-17T00:46:15;16.60;99.90
59007;DHT22;44792;52.760;6.726;2023-08-17T00:48:42;16.60;99.90
59007;DHT22;44792;52.760;6.726;2023-08-17T00:51:08;16.60;99.90
59007;DHT22;44792;52.760;6.726;2023-08-17T00:53:34;16.60;99.90
59007;DHT22;44792;52.760;6.726;2023-08-17T00:56:01;16.50;99.90
59007;DHT22;44792;52.760;6.726;2023-08-17T00:58:27;16.60;99.90
59007;DHT22;44792;52.760;6.726;2023-08-17T01:00:53;16.60;99.90
59007;DHT22;44792;52.760;6.726;2023-08-17T01:03:20;16.60;99.90
59007;DHT22;44792;52.760;6.726;2023-08-17T01:05:47;16.60;99.90
59007;DHT22;44792;52.760;6.726;2023-08-17T01:08:13;16.60;99.90
59007;DHT22;44792;52.760;6.726;2023-08-17T01:10:51;16.60;99.90
59007;DHT22;44792;52.760;6.726;2023-08-17T01:13:31;16.60;99.90
59007;DHT22;44792;52.760;6.726;2023-08-17T01:16:02;16.60;99.90
59007;DHT22;44792;52.760;6.726;2023-08-17T01:18:33;16.60;99.90
59007;DHT22;44792;52.760;6.726;2023-08-17T01:21:00;16.60;99.90
59007;DHT22;44792;52.760;6.726;2023-08-17T01:23:27;16.60;99.90
59007;DHT22;44792;52.760;6.726;2023-08-17T01:25:53;16.60;99.90
59007;DHT22;44792;52.760;6.726;2023-08-17T01:28:19;16.60;99.90
59007;DHT22;44792;52.760;6.726;2023-08-17T01:33:40;16.60;99.90
59007;DHT22;44792;52.760;6.726;2023-08-17T01:36:31;16.60;99.90
59007;DHT22;44792;52.760;6.726;2023-08-17T01:38:59;16.60;99.90
59007;DHT22;44792;52.760;6.726;2023-08-17T01:41:26;16.50;99.90
59007;DHT22;44792;52.760;6.726;2023-08-17T01:43:53;16.60;99.90
59007;DHT22;44792;52.760;6.726;2023-08-17T01:46:19;16.50;99.90
59007;DHT22;44792;52.760;6.726;2023-08-17T01:48:46;16.50;99.90
59007;DHT22;44792;52.760;6.726;2023-08-17T01:51:17;16.50;99.90
59007;DHT22;44792;52.760;6.726;2023-08-17T01:53:45;16.50;99.90
59007;DHT22;44792;52.760;6.726;2023-08-17T01:56:11;16.50;99.90
59007;DHT22;44792;52.760;6.726;2023-08-17T01:58:38;16.50;99.90
59007;DHT22;44792;52.760;6.726;2023-08-17T02:01:04;16.50;99.90
59007;DHT22;44792;52.760;6.726;2023-08-17T02:03:30;16.50;99.90
59007;DHT22;44792;52.760;6.726;2023-08-17T02:05:57;16.50;99.90
59007;DHT22;44792;52.760;6.726;2023-08-17T02:08:23;16.50;99.90
59007;DHT22;44792;52.760;6.726;2023-08-17T02:10:49;16.50;99.90
59007;DHT22;44792;52.760;6.726;2023-08-17T02:13:15;16.50;99.90
59007;DHT22;44792;52.760;6.726;2023-08-17T02:15:41;16.50;99.90
59007;DHT22;44792;52.760;6.726;2023-08-17T02:18:07;16.50;99.90
59007;DHT22;44792;52.760;6.726;2023-08-17T02:20:34;16.50;99.90
59007;DHT22;44792;52.760;6.726;2023-08-17T02:23:00;16.50;99.90
59007;DHT22;44792;52.760;6.726;2023-08-17T02:25:26;16.50;99.90
59007;DHT22;44792;52.760;6.726;2023-08-17T02:27:52;16.40;99.90
59007;DHT22;44792;52.760;6.726;2023-08-17T02:30:19;16.50;99.90
59007;DHT22;44792;52.760;6.726;2023-08-17T02:32:44;16.40;99.90
59007;DHT22;44792;52.760;6.726;2023-08-17T02:35:10;16.40;99.90
59007;DHT22;44792;52.760;6.726;2023-08-17T02:37:36;16.40;99.90
59007;DHT22;44792;52.760;6.726;2023-08-17T02:40:02;16.40;99.90
59007;DHT22;44792;52.760;6.726;2023-08-17T02:42:29;16.40;99.90
59007;DHT22;44792;52.760;6.726;2023-08-17T02:44:55;16.40;99.90
59007;DHT22;44792;52.760;6.726;2023-08-17T02:47:21;16.40;99.90
59007;DHT22;44792;52.760;6.726;2023-08-17T02:49:47;16.40;99.90
59007;DHT22;44792;52.760;6.726;2023-08-17T02:52:14;16.40;99.90
59007;DHT22;44792;52.760;6.726;2023-08-17T02:54:40;16.40;99.90
59007;DHT22;44792;52.760;6.726;2023-08-17T02:57:06;16.40;99.90
59007;DHT22;44792;52.760;6.726;2023-08-17T02:59:31;16.40;99.90
59007;DHT22;44792;52.760;6.726;2023-08-17T03:01:57;16.40;99.90
59007;DHT22;44792;52.760;6.726;2023-08-17T03:04:23;16.30;99.90
59007;DHT22;44792;52.760;6.726;2023-08-17T03:06:49;16.30;99.90
59007;DHT22;44792;52.760;6.726;2023-08-17T03:09:15;16.30;99.90
59007;DHT22;44792;52.760;6.726;2023-08-17T03:11:41;16.30;99.90
59007;DHT22;44792;52.760;6.726;2023-08-17T03:14:07;16.30;99.90
59007;DHT22;44792;52.760;6.726;2023-08-17T03:16:32;16.40;99.90
59007;DHT22;44792;52.760;6.726;2023-08-17T03:18:58;16.40;99.90
59007;DHT22;44792;52.760;6.726;2023-08-17T03:21:24;16.40;99.90
59007;DHT22;44792;52.760;6.726;2023-08-17T03:23:50;16.40;99.90
59007;DHT22;44792;52.760;6.726;2023-08-17T03:26:16;16.30;99.90
59007;DHT22;44792;52.760;6.726;2023-08-17T03:28:41;16.30;99.90
59007;DHT22;44792;52.760;6.726;2023-08-17T03:31:07;16.30;99.90
59007;DHT22;44792;52.760;6.726;2023-08-17T03:33:36;16.40;99.90
59007;DHT22;44792;52.760;6.726;2023-08-17T03:36:02;16.30;99.90
59007;DHT22;44792;52.760;6.726;2023-08-17T03:38:28;16.30;99.90
59007;DHT22;44792;52.760;6.726;2023-08-17T03:40:54;16.40;99.90
59007;DHT22;44792;52.760;6.726;2023-08-17T03:43:20;16.40;99.90
59007;DHT22;44792;52.760;6.726;2023-08-17T03:45:46;16.40;99.90
59007;DHT22;44792;52.760;6.726;2023-08-17T03:48:11;16.30;99.90
59007;DHT22;44792;52.760;6.726;2023-08-17T03:50:38;16.40;99.90
59007;DHT22;44792;52.760;6.726;2023-08-17T03:53:04;16.40;99.90
59007;DHT22;44792;52.760;6.726;2023-08-17T03:55:30;16.40;99.90
59007;DHT22;44792;52.760;6.726;2023-08-17T03:57:56;16.40;99.90
59007;DHT22;44792;52.760;6.726;2023-08-17T04:00:21;16.40;99.90
59007;DHT22;44792;52.760;6.726;2023-08-17T04:02:47;16.40;99.90
59007;DHT22;44792;52.760;6.726;2023-08-17T04:05:13;16.40;99.90
59007;DHT22;44792;52.760;6.726;2023-08-17T04:07:39;16.40;99.90
59007;DHT22;44792;52.760;6.726;2023-08-17T04:10:08;16.40;99.90
59007;DHT22;44792;52.760;6.726;2023-08-17T04:12:34;16.40;99.90
59007;DHT22;44792;52.760;6.726;2023-08-17T04:15:00;16.40;99.90
59007;DHT22;44792;52.760;6.726;2023-08-17T04:17:26;16.40;99.90
59007;DHT22;44792;52.760;6.726;2023-08-17T04:19:52;16.40;99.90
59007;DHT22;44792;52.760;6.726;2023-08-17T04:22:18;16.40;99.90
59007;DHT22;44792;52.760;6.726;2023-08-17T04:24:43;16.40;99.90
59007;DHT22;44792;52.760;6.726;2023-08-17T04:27:09;16.40;99.90
59007;DHT22;44792;52.760;6.726;2023-08-17T04:29:37;16.40;99.90
59007;DHT22;44792;52.760;6.726;2023-08-17T04:32:03;16.50;99.90
59007;DHT22;44792;52.760;6.726;2023-08-17T04:34:29;16.40;99.90
59007;DHT22;44792;52.760;6.726;2023-08-17T04:36:55;16.40;99.90
59007;DHT22;44792;52.760;6.726;2023-08-17T04:39:20;16.40;99.90
59007;DHT22;44792;52.760;6.726;2023-08-17T04:41:46;16.50;99.90
59007;DHT22;44792;52.760;6.726;2023-08-17T04:44:12;16.40;99.90
59007;DHT22;44792;52.760;6.726;2023-08-17T04:46:38;16.50;99.90
59007;DHT22;44792;52.760;6.726;2023-08-17T04:49:03;16.50;99.90
59007;DHT22;44792;52.760;6.726;2023-08-17T04:51:30;16.40;99.90
59007;DHT22;44792;52.760;6.726;2023-08-17T04:53:55;16.40;99.90
59007;DHT22;44792;52.760;6.726;2023-08-17T04:56:21;16.40;99.90
59007;DHT22;44792;52.760;6.726;2023-08-17T04:58:47;16.50;99.90
59007;DHT22;44792;52.760;6.726;2023-08-17T05:01:12;16.50;99.90
59007;DHT22;44792;52.760;6.726;2023-08-17T05:03:38;16.50;99.90
59007;DHT22;44792;52.760;6.726;2023-08-17T05:06:04;16.50;99.90
59007;DHT22;44792;52.760;6.726;2023-08-17T05:08:30;16.50;99.90
59007;DHT22;44792;52.760;6.726;2023-08-17T05:10:55;16.50;99.90
59007;DHT22;44792;52.760;6.726;2023-08-17T05:13:21;16.50;99.90
59007;DHT22;44792;52.760;6.726;2023-08-17T05:15:47;16.50;99.90
59007;DHT22;44792;52.760;6.726;2023-08-17T05:18:12;16.50;99.90
59007;DHT22;44792;52.760;6.726;2023-08-17T05:20:38;16.40;99.90
59007;DHT22;44792;52.760;6.726;2023-08-17T05:23:04;16.40;99.90
59007;DHT22;44792;52.760;6.726;2023-08-17T05:25:30;16.40;99.90
59007;DHT22;44792;52.760;6.726;2023-08-17T05:27:56;16.40;99.90
59007;DHT22;44792;52.760;6.726;2023-08-17T05:30:22;16.40;99.90
59007;DHT22;44792;52.760;6.726;2023-08-17T05:32:47;16.50;99.90
59007;DHT22;44792;52.760;6.726;2023-08-17T05:35:13;16.50;99.90
59007;DHT22;44792;52.760;6.726;2023-08-17T05:37:39;16.50;99.90
59007;DHT22;44792;52.760;6.726;2023-08-17T05:40:05;16.50;99.90
59007;DHT22;44792;52.760;6.726;2023-08-17T05:42:31;16.50;99.90
59007;DHT22;44792;52.760;6.726;2023-08-17T05:44:57;16.50;99.90
59007;DHT22;44792;52.760;6.726;2023-08-17T05:47:22;16.50;99.90
59007;DHT22;44792;52.760;6.726;2023-08-17T05:49:48;16.50;99.90
59007;DHT22;44792;52.760;6.726;2023-08-17T05:52:14;16.60;99.90
59007;DHT22;44792;52.760;6.726;2023-08-17T05:54:40;16.50;99.90
59007;DHT22;44792;52.760;6.726;2023-08-17T05:57:05;16.60;99.90
59007;DHT22;44792;52.760;6.726;2023-08-17T05:59:31;16.60;99.90
59007;DHT22;44792;52.760;6.726;2023-08-17T06:01:57;16.60;99.90
59007;DHT22;44792;52.760;6.726;2023-08-17T06:04:23;16.60;99.90
59007;DHT22;44792;52.760;6.726;2023-08-17T06:06:49;16.60;99.90
59007;DHT22;44792;52.760;6.726;2023-08-17T06:09:15;16.60;99.90
59007;DHT22;44792;52.760;6.726;2023-08-17T06:11:41;16.60;99.90
59007;DHT22;44792;52.760;6.726;2023-08-17T06:14:07;16.70;99.90
59007;DHT22;44792;52.760;6.726;2023-08-17T06:16:32;16.70;99.90
59007;DHT22;44792;52.760;6.726;2023-08-17T06:18:58;16.70;99.90
59007;DHT22;44792;52.760;6.726;2023-08-17T06:21:24;16.70;99.90
59007;DHT22;44792;52.760;6.726;2023-08-17T06:23:49;16.70;99.90
59007;DHT22;44792;52.760;6.726;2023-08-17T06:26:15;16.70;99.90
59007;DHT22;44792;52.760;6.726;2023-08-17T06:28:41;16.70;99.90
59007;DHT22;44792;52.760;6.726;2023-08-17T06:31:07;16.80;99.90
59007;DHT22;44792;52.760;6.726;2023-08-17T06:33:33;16.80;99.90
59007;DHT22;44792;52.760;6.726;2023-08-17T06:35:59;16.90;99.90
59007;DHT22;44792;52.760;6.726;2023-08-17T06:38:25;16.90;99.90
59007;DHT22;44792;52.760;6.726;2023-08-17T06:40:52;16.90;99.90
59007;DHT22;44792;52.760;6.726;2023-08-17T06:43:18;16.90;99.90
59007;DHT22;44792;52.760;6.726;2023-08-17T06:45:44;16.90;99.90
59007;DHT22;44792;52.760;6.726;2023-08-17T06:48:10;16.90;99.90
59007;DHT22;44792;52.760;6.726;2023-08-17T06:50:36;16.90;99.90
59007;DHT22;44792;52.760;6.726;2023-08-17T06:53:02;16.90;99.90
59007;DHT22;44792;52.760;6.726;2023-08-17T06:55:28;16.90;99.90
59007;DHT22;44792;52.760;6.726;2023-08-17T06:57:54;16.90;99.90
59007;DHT22;44792;52.760;6.726;2023-08-17T07:00:20;16.90;99.90
59007;DHT22;44792;52.760;6.726;2023-08-17T07:02:50;17.00;99.90
59007;DHT22;44792;52.760;6.726;2023-08-17T07:05:16;17.00;99.90
59007;DHT22;44792;52.760;6.726;2023-08-17T07:07:42;16.90;99.90
59007;DHT22;44792;52.760;6.726;2023-08-17T07:10:09;16.90;99.90
59007;DHT22;44792;52.760;6.726;2023-08-17T07:12:36;16.90;99.90
59007;DHT22;44792;52.760;6.726;2023-08-17T07:15:03;17.00;99.90
59007;DHT22;44792;52.760;6.726;2023-08-17T07:17:30;17.00;99.90
59007;DHT22;44792;52.760;6.726;2023-08-17T07:19:56;17.00;99.90
59007;DHT22;44792;52.760;6.726;2023-08-17T07:22:21;17.00;99.90
59007;DHT22;44792;52.760;6.726;2023-08-17T07:24:47;17.00;99.90
59007;DHT22;44792;52.760;6.726;2023-08-17T07:27:13;17.00;99.90
59007;DHT22;44792;52.760;6.726;2023-08-17T07:29:38;17.00;99.90
59007;DHT22;44792;52.760;6.726;2023-08-17T07:32:04;17.10;99.90
59007;DHT22;44792;52.760;6.726;2023-08-17T07:34:30;17.10;99.90
59007;DHT22;44792;52.760;6.726;2023-08-17T07:36:57;17.10;99.90
59007;DHT22;44792;52.760;6.726;2023-08-17T07:39:23;17.10;99.90
59007;DHT22;44792;52.760;6.726;2023-08-17T07:41:49;17.20;99.90
59007;DHT22;44792;52.760;6.726;2023-08-17T07:44:15;17.20;99.90
59007;DHT22;44792;52.760;6.726;2023-08-17T07:46:40;17.20;99.90
59007;DHT22;44792;52.760;6.726;2023-08-17T07:49:07;17.30;99.90
59007;DHT22;44792;52.760;6.726;2023-08-17T07:51:33;17.20;99.90
59007;DHT22;44792;52.760;6.726;2023-08-17T07:54:00;17.30;99.90
59007;DHT22;44792;52.760;6.726;2023-08-17T07:56:26;17.30;99.90
59007;DHT22;44792;52.760;6.726;2023-08-17T07:58:55;17.30;99.90
59007;DHT22;44792;52.760;6.726;2023-08-17T08:01:21;17.30;99.90
59007;DHT22;44792;52.760;6.726;2023-08-17T08:03:47;17.30;99.90
59007;DHT22;44792;52.760;6.726;2023-08-17T08:06:13;17.30;99.90
59007;DHT22;44792;52.760;6.726;2023-08-17T08:08:40;17.40;99.90
59007;DHT22;44792;52.760;6.726;2023-08-17T08:11:06;17.40;99.90
59007;DHT22;44792;52.760;6.726;2023-08-17T08:13:31;17.40;99.90
59007;DHT22;44792;52.760;6.726;2023-08-17T08:15:58;17.40;99.90
59007;DHT22;44792;52.760;6.726;2023-08-17T08:18:24;17.50;99.90
59007;DHT22;44792;52.760;6.726;2023-08-17T08:20:50;17.50;99.90
59007;DHT22;44792;52.760;6.726;2023-08-17T08:23:19;17.50;99.90
59007;DHT22;44792;52.760;6.726;2023-08-17T08:25:45;17.60;99.90
59007;DHT22;44792;52.760;6.726;2023-08-17T08:28:10;17.60;99.90
59007;DHT22;44792;52.760;6.726;2023-08-17T08:30:36;17.60;99.90
59007;DHT22;44792;52.760;6.726;2023-08-17T08:33:02;17.60;99.90
59007;DHT22;44792;52.760;6.726;2023-08-17T08:35:28;17.60;99.90
59007;DHT22;44792;52.760;6.726;2023-08-17T08:37:54;17.60;99.90
59007;DHT22;44792;52.760;6.726;2023-08-17T08:40:30;17.60;99.90
59007;DHT22;44792;52.760;6.726;2023-08-17T08:42:59;17.60;99.90
59007;DHT22;44792;52.760;6.726;2023-08-17T08:45:25;17.60;99.90
59007;DHT22;44792;52.760;6.726;2023-08-17T08:47:52;17.60;99.90
59007;DHT22;44792;52.760;6.726;2023-08-17T08:50:20;17.60;99.90
59007;DHT22;44792;52.760;6.726;2023-08-17T08:53:00;17.60;99.90
59007;DHT22;44792;52.760;6.726;2023-08-17T08:55:31;17.70;99.90
59007;DHT22;44792;52.760;6.726;2023-08-17T08:57:59;17.70;99.90
59007;DHT22;44792;52.760;6.726;2023-08-17T09:00:25;17.60;99.90
59007;DHT22;44792;52.760;6.726;2023-08-17T09:02:52;17.70;99.90
59007;DHT22;44792;52.760;6.726;2023-08-17T09:05:19;17.70;99.90
59007;DHT22;44792;52.760;6.726;2023-08-17T09:07:48;17.70;99.90
59007;DHT22;44792;52.760;6.726;2023-08-17T09:10:15;17.80;99.90
59007;DHT22;44792;52.760;6.726;2023-08-17T09:12:45;17.80;99.90
59007;DHT22;44792;52.760;6.726;2023-08-17T09:15:11;17.90;99.90
59007;DHT22;44792;52.760;6.726;2023-08-17T09:17:36;17.90;99.90
59007;DHT22;44792;52.760;6.726;2023-08-17T09:20:03;18.00;99.90
59007;DHT22;44792;52.760;6.726;2023-08-17T09:22:40;17.90;99.90
59007;DHT22;44792;52.760;6.726;2023-08-17T09:25:06;18.00;99.90
59007;DHT22;44792;52.760;6.726;2023-08-17T09:27:32;18.00;99.90
59007;DHT22;44792;52.760;6.726;2023-08-17T09:30:05;18.10;99.90
59007;DHT22;44792;52.760;6.726;2023-08-17T09:32:32;18.00;99.90
59007;DHT22;44792;52.760;6.726;2023-08-17T09:35:02;18.10;99.90
59007;DHT22;44792;52.760;6.726;2023-08-17T09:37:29;18.10;99.90
59007;DHT22;44792;52.760;6.726;2023-08-17T09:39:55;18.10;99.90
59007;DHT22;44792;52.760;6.726;2023-08-17T09:42:21;18.10;99.90
59007;DHT22;44792;52.760;6.726;2023-08-17T09:44:49;18.10;99.90
59007;DHT22;44792;52.760;6.726;2023-08-17T09:47:16;18.10;99.90
59007;DHT22;44792;52.760;6.726;2023-08-17T09:49:48;18.10;99.90
59007;DHT22;44792;52.760;6.726;2023-08-17T09:52:15;18.10;99.90
59007;DHT22;44792;52.760;6.726;2023-08-17T09:54:41;18.10;99.90
59007;DHT22;44792;52.760;6.726;2023-08-17T09:57:08;18.10;99.90
59007;DHT22;44792;52.760;6.726;2023-08-17T09:59:34;18.20;99.90
59007;DHT22;44792;52.760;6.726;2023-08-17T10:02:02;18.20;99.90
59007;DHT22;44792;52.760;6.726;2023-08-17T10:04:31;18.20;99.90
59007;DHT22;44792;52.760;6.726;2023-08-17T10:07:03;18.20;99.90
59007;DHT22;44792;52.760;6.726;2023-08-17T10:09:36;18.30;99.90
59007;DHT22;44792;52.760;6.726;2023-08-17T10:12:08;18.30;99.90
59007;DHT22;44792;52.760;6.726;2023-08-17T10:14:39;18.40;99.90
59007;DHT22;44792;52.760;6.726;2023-08-17T10:17:12;18.40;99.90
59007;DHT22;44792;52.760;6.726;2023-08-17T10:19:57;18.40;99.90
59007;DHT22;44792;52.760;6.726;2023-08-17T10:22:44;18.40;99.90
59007;DHT22;44792;52.760;6.726;2023-08-17T10:25:12;18.40;99.90
59007;DHT22;44792;52.760;6.726;2023-08-17T10:27:40;18.50;99.90
59007;DHT22;44792;52.760;6.726;2023-08-17T10:30:11;18.50;99.90
59007;DHT22;44792;52.760;6.726;2023-08-17T10:32:37;18.60;99.90
59007;DHT22;44792;52.760;6.726;2023-08-17T10:35:04;18.60;99.90
59007;DHT22;44792;52.760;6.726;2023-08-17T10:37:31;18.70;99.90
59007;DHT22;44792;52.760;6.726;2023-08-17T10:39:57;18.70;99.90
59007;DHT22;44792;52.760;6.726;2023-08-17T10:42:31;18.70;99.90
59007;DHT22;44792;52.760;6.726;2023-08-17T10:44:57;18.70;99.90
59007;DHT22;44792;52.760;6.726;2023-08-17T10:47:29;18.80;99.90
59007;DHT22;44792;52.760;6.726;2023-08-17T10:52:30;18.90;99.90
59007;DHT22;44792;52.760;6.726;2023-08-17T10:55:02;18.80;99.90
59007;DHT22;44792;52.760;6.726;2023-08-17T10:57:41;18.80;99.90
59007;DHT22;44792;52.760;6.726;2023-08-17T11:00:21;18.80;99.90
59007;DHT22;44792;52.760;6.726;2023-08-17T11:02:59;18.90;99.90
59007;DHT22;44792;52.760;6.726;2023-08-17T11:08:00;19.00;99.90
59007;DHT22;44792;52.760;6.726;2023-08-17T11:10:27;19.10;99.90
59007;DHT22;44792;52.760;6.726;2023-08-17T11:12:54;19.20;99.90
59007;DHT22;44792;52.760;6.726;2023-08-17T11:15:38;19.30;99.90
59007;DHT22;44792;52.760;6.726;2023-08-17T11:18:06;19.30;99.90
59007;DHT22;44792;52.760;6.726;2023-08-17T11:20:33;19.30;99.90
59007;DHT22;44792;52.760;6.726;2023-08-17T11:22:59;19.30;99.90
59007;DHT22;44792;52.760;6.726;2023-08-17T11:25:26;19.20;99.90
59007;DHT22;44792;52.760;6.726;2023-08-17T11:27:54;19.20;99.90
59007;DHT22;44792;52.760;6.726;2023-08-17T11:30:21;19.20;99.90
59007;DHT22;44792;52.760;6.726;2023-08-17T11:32:52;19.20;99.90
59007;DHT22;44792;52.760;6.726;2023-08-17T11:35:18;19.10;99.90
59007;DHT22;44792;52.760;6.726;2023-08-17T11:37:45;19.10;99.90
59007;DHT22;44792;52.760;6.726;2023-08-17T11:40:14;19.10;99.90
59007;DHT22;44792;52.760;6.726;2023-08-17T11:42:40;19.10;99.90
59007;DHT22;44792;52.760;6.726;2023-08-17T11:45:06;19.10;99.90
59007;DHT22;44792;52.760;6.726;2023-08-17T11:47:38;19.20;99.90
59007;DHT22;44792;52.760;6.726;2023-08-17T11:50:06;19.20;99.90
59007;DHT22;44792;52.760;6.726;2023-08-17T11:52:32;19.30;99.90
59007;DHT22;44792;52.760;6.726;2023-08-17T11:54:59;19.30;99.90
59007;DHT22;44792;52.760;6.726;2023-08-17T11:57:26;19.30;99.90
59007;DHT22;44792;52.760;6.726;2023-08-17T11:59:56;19.30;99.90
59007;DHT22;44792;52.760;6.726;2023-08-17T12:02:26;19.30;99.90
59007;DHT22;44792;52.760;6.726;2023-08-17T12:04:53;19.30;99.90
59007;DHT22;44792;52.760;6.726;2023-08-17T12:07:19;19.30;99.90
59007;DHT22;44792;52.760;6.726;2023-08-17T12:09:45;19.30;99.90
59007;DHT22;44792;52.760;6.726;2023-08-17T12:12:12;19.30;99.90
59007;DHT22;44792;52.760;6.726;2023-08-17T12:14:41;19.30;99.90
59007;DHT22;44792;52.760;6.726;2023-08-17T12:17:14;19.40;99.90
59007;DHT22;44792;52.760;6.726;2023-08-17T12:19:40;19.40;99.90
59007;DHT22;44792;52.760;6.726;2023-08-17T12:22:06;19.40;99.90
59007;DHT22;44792;52.760;6.726;2023-08-17T12:24:32;19.50;99.90
59007;DHT22;44792;52.760;6.726;2023-08-17T12:26:59;19.50;99.90
59007;DHT22;44792;52.760;6.726;2023-08-17T12:29:24;19.60;99.90
59007;DHT22;44792;52.760;6.726;2023-08-17T12:31:51;19.70;99.90
59007;DHT22;44792;52.760;6.726;2023-08-17T12:34:17;19.70;99.90
59007;DHT22;44792;52.760;6.726;2023-08-17T12:36:44;19.70;99.90
59007;DHT22;44792;52.760;6.726;2023-08-17T12:39:10;19.70;99.90
59007;DHT22;44792;52.760;6.726;2023-08-17T12:41:36;19.70;99.90
59007;DHT22;44792;52.760;6.726;2023-08-17T12:44:01;19.70;99.90
59007;DHT22;44792;52.760;6.726;2023-08-17T12:46:27;19.80;99.90
59007;DHT22;44792;52.760;6.726;2023-08-17T12:48:53;19.80;99.90
59007;DHT22;44792;52.760;6.726;2023-08-17T12:51:19;19.90;99.90
59007;DHT22;44792;52.760;6.726;2023-08-17T12:53:45;19.90;99.90
59007;DHT22;44792;52.760;6.726;2023-08-17T12:56:11;19.90;99.90
59007;DHT22;44792;52.760;6.726;2023-08-17T12:58:36;19.90;99.90
59007;DHT22;44792;52.760;6.726;2023-08-17T13:01:03;19.90;99.90
59007;DHT22;44792;52.760;6.726;2023-08-17T13:03:28;19.80;99.90
59007;DHT22;44792;52.760;6.726;2023-08-17T13:05:54;19.90;99.90
59007;DHT22;44792;52.760;6.726;2023-08-17T13:08:20;19.90;99.90
59007;DHT22;44792;52.760;6.726;2023-08-17T13:10:46;19.90;99.90
59007;DHT22;44792;52.760;6.726;2023-08-17T13:13:12;19.80;99.90
59007;DHT22;44792;52.760;6.726;2023-08-17T13:15:38;19.90;99.90
59007;DHT22;44792;52.760;6.726;2023-08-17T13:18:04;19.90;99.90
59007;DHT22;44792;52.760;6.726;2023-08-17T13:20:30;19.90;99.90
59007;DHT22;44792;52.760;6.726;2023-08-17T13:22:55;20.00;99.90
59007;DHT22;44792;52.760;6.726;2023-08-17T13:25:21;20.00;99.90
59007;DHT22;44792;52.760;6.726;2023-08-17T13:27:47;20.00;99.90
59007;DHT22;44792;52.760;6.726;2023-08-17T13:30:13;20.00;99.90
59007;DHT22;44792;52.760;6.726;2023-08-17T13:32:38;20.00;99.90
59007;DHT22;44792;52.760;6.726;2023-08-17T13:35:04;20.00;99.90
59007;DHT22;44792;52.760;6.726;2023-08-17T13:37:30;20.00;99.90
59007;DHT22;44792;52.760;6.726;2023-08-17T13:39:56;20.00;99.90
59007;DHT22;44792;52.760;6.726;2023-08-17T13:42:23;20.00;99.90
59007;DHT22;44792;52.760;6.726;2023-08-17T13:44:49;20.00;99.90
59007;DHT22;44792;52.760;6.726;2023-08-17T13:47:15;20.00;99.90
59007;DHT22;44792;52.760;6.726;2023-08-17T13:49:41;20.00;99.90
59007;DHT22;44792;52.760;6.726;2023-08-17T13:52:06;20.00;99.90
59007;DHT22;44792;52.760;6.726;2023-08-17T13:54:32;20.00;99.90
59007;DHT22;44792;52.760;6.726;2023-08-17T13:56:58;20.00;99.90
59007;DHT22;44792;52.760;6.726;2023-08-17T13:59:24;20.00;99.90
59007;DHT22;44792;52.760;6.726;2023-08-17T14:01:50;20.00;99.90
59007;DHT22;44792;52.760;6.726;2023-08-17T14:04:16;20.00;99.90
59007;DHT22;44792;52.760;6.726;2023-08-17T14:06:43;20.00;99.90
59007;DHT22;44792;52.760;6.726;2023-08-17T14:09:09;20.00;99.90
59007;DHT22;44792;52.760;6.726;2023-08-17T14:11:35;20.10;99.90
59007;DHT22;44792;52.760;6.726;2023-08-17T14:14:01;20.10;99.90
59007;DHT22;44792;52.760;6.726;2023-08-17T14:16:26;20.10;99.90
59007;DHT22;44792;52.760;6.726;2023-08-17T14:18:52;20.10;99.90
59007;DHT22;44792;52.760;6.726;2023-08-17T14:21:18;20.10;99.90
59007;DHT22;44792;52.760;6.726;2023-08-17T14:23:43;20.20;99.90
59007;DHT22;44792;52.760;6.726;2023-08-17T14:26:10;20.10;99.90
59007;DHT22;44792;52.760;6.726;2023-08-17T14:28:35;20.10;99.90
59007;DHT22;44792;52.760;6.726;2023-08-17T14:31:01;20.10;99.90
59007;DHT22;44792;52.760;6.726;2023-08-17T14:33:27;20.00;99.90
59007;DHT22;44792;52.760;6.726;2023-08-17T14:35:53;20.00;99.90
59007;DHT22;44792;52.760;6.726;2023-08-17T14:38:18;20.00;99.90
59007;DHT22;44792;52.760;6.726;2023-08-17T14:40:45;19.90;99.90
59007;DHT22;44792;52.760;6.726;2023-08-17T14:43:12;20.00;99.90
59007;DHT22;44792;52.760;6.726;2023-08-17T14:45:42;19.90;99.90
59007;DHT22;44792;52.760;6.726;2023-08-17T14:48:08;19.90;99.90
59007;DHT22;44792;52.760;6.726;2023-08-17T14:50:35;19.90;99.90
59007;DHT22;44792;52.760;6.726;2023-08-17T14:53:02;19.90;99.90
59007;DHT22;44792;52.760;6.726;2023-08-17T14:55:31;19.90;99.90
59007;DHT22;44792;52.760;6.726;2023-08-17T14:57:57;19.90;99.90
59007;DHT22;44792;52.760;6.726;2023-08-17T15:00:24;19.90;99.90
59007;DHT22;44792;52.760;6.726;2023-08-17T15:02:50;19.80;99.90
59007;DHT22;44792;52.760;6.726;2023-08-17T15:05:16;19.90;99.90
59007;DHT22;44792;52.760;6.726;2023-08-17T15:07:42;19.90;99.90
59007;DHT22;44792;52.760;6.726;2023-08-17T15:10:08;19.90;99.90
59007;DHT22;44792;52.760;6.726;2023-08-17T15:12:34;19.80;99.90
59007;DHT22;44792;52.760;6.726;2023-08-17T15:15:00;19.80;99.90
59007;DHT22;44792;52.760;6.726;2023-08-17T15:17:26;19.80;99.90
59007;DHT22;44792;52.760;6.726;2023-08-17T15:19:51;19.80;99.90
59007;DHT22;44792;52.760;6.726;2023-08-17T15:22:17;19.80;99.90
59007;DHT22;44792;52.760;6.726;2023-08-17T15:24:44;19.90;99.90
59007;DHT22;44792;52.760;6.726;2023-08-17T15:27:09;19.90;99.90
59007;DHT22;44792;52.760;6.726;2023-08-17T15:29:35;19.90;99.90
59007;DHT22;44792;52.760;6.726;2023-08-17T15:32:01;19.90;99.90
59007;DHT22;44792;52.760;6.726;2023-08-17T15:34:27;19.90;99.90